createdAt,value
2022-11-19T00:02:14.087Z,5.75
2022-11-19T00:04:44.497Z,4.88
2022-11-19T00:07:12.584Z,4.25
2022-11-19T00:09:40.650Z,4.63
2022-11-19T00:12:27.800Z,5.68
2022-11-19T00:14:55.988Z,3.15
2022-11-19T00:17:23.963Z,2.22
2022-11-19T00:19:53.380Z,2.85
2022-11-19T00:22:21.386Z,3.75
2022-11-19T00:24:49.415Z,6.43
2022-11-19T00:27:17.454Z,4.90
2022-11-19T00:29:45.524Z,5.15
2022-11-19T00:32:14.453Z,6.88
2022-11-19T00:34:42.586Z,4.18
2022-11-19T00:37:11.914Z,6.10
2022-11-19T00:39:40.054Z,3.17
2022-11-19T00:42:08.105Z,7.50
2022-11-19T00:44:37.565Z,5.95
2022-11-19T00:47:06.103Z,5.05
2022-11-19T00:49:35.372Z,7.03
2022-11-19T00:52:03.595Z,7.68
2022-11-19T00:54:33.241Z,4.72
2022-11-19T00:57:01.271Z,4.60
2022-11-19T00:59:29.355Z,6.47
2022-11-19T01:01:57.412Z,8.50
2022-11-19T01:04:25.586Z,5.50
2022-11-19T01:06:53.587Z,4.75
2022-11-19T01:09:22.001Z,5.03
2022-11-19T01:11:51.412Z,3.03
2022-11-19T01:14:19.537Z,4.35
2022-11-19T01:16:47.513Z,5.35
2022-11-19T01:19:17.153Z,2.88
2022-11-19T01:21:47.747Z,6.15
2022-11-19T01:24:15.744Z,4.25
2022-11-19T01:26:45.992Z,3.83
2022-11-19T01:29:18.268Z,3.42
2022-11-19T01:31:46.752Z,4.90
2022-11-19T01:34:14.847Z,5.15
2022-11-19T01:36:42.836Z,5.60
2022-11-19T01:39:10.944Z,3.53
2022-11-19T01:41:38.986Z,2.50
2022-11-19T01:44:28.232Z,4.03
2022-11-19T01:46:57.596Z,2.65
2022-11-19T01:49:25.605Z,5.20
2022-11-19T01:51:57.622Z,5.20
2022-11-19T01:54:30.998Z,3.40
2022-11-19T01:57:04.013Z,4.55
2022-11-19T01:59:33.155Z,3.67
2022-11-19T02:02:02.461Z,5.97
2022-11-19T02:04:31.211Z,6.90
2022-11-19T02:06:59.589Z,6.20
2022-11-19T02:09:29.023Z,6.40
2022-11-19T02:12:13.796Z,3.85
2022-11-19T02:15:07.338Z,3.28
2022-11-19T02:18:08.352Z,3.13
2022-11-19T02:20:46.553Z,2.30
2022-11-19T02:23:45.789Z,7.05
2022-11-19T02:26:42.026Z,4.95
2022-11-19T02:29:21.357Z,7.18
2022-11-19T02:31:56.883Z,5.13
2022-11-19T02:34:30.185Z,5.47
2022-11-19T02:37:01.952Z,7.50
2022-11-19T02:39:40.163Z,4.20
2022-11-19T02:42:19.143Z,5.43
2022-11-19T02:45:02.531Z,3.92
2022-11-19T02:47:36.965Z,2.95
2022-11-19T02:50:12.139Z,4.63
2022-11-19T02:52:43.759Z,3.53
2022-11-19T02:55:13.541Z,3.15
2022-11-19T02:57:43.224Z,4.80
2022-11-19T03:00:30.100Z,4.10
2022-11-19T03:03:23.840Z,6.43
2022-11-19T03:05:55.389Z,6.40
2022-11-19T03:08:24.020Z,3.47
2022-11-19T03:11:01.572Z,3.60
2022-11-19T03:13:51.760Z,3.83
2022-11-19T03:16:44.686Z,3.85
2022-11-19T03:19:24.536Z,4.72
2022-11-19T03:21:57.446Z,4.70
2022-11-19T03:24:31.742Z,4.80
2022-11-19T03:27:05.722Z,4.50
2022-11-19T03:29:38.028Z,5.53
2022-11-19T03:32:10.548Z,5.03
2022-11-19T03:34:42.025Z,6.22
2022-11-19T03:37:11.992Z,4.00
2022-11-19T03:39:41.294Z,5.35
2022-11-19T03:42:13.051Z,3.90
2022-11-19T03:44:45.518Z,5.28
2022-11-19T03:47:17.268Z,4.88
2022-11-19T03:49:51.022Z,5.03
2022-11-19T03:52:21.767Z,6.70
2022-11-19T03:54:50.188Z,3.13
2022-11-19T03:57:22.443Z,4.60
2022-11-19T03:59:52.992Z,6.85
2022-11-19T04:02:21.227Z,4.95
2022-11-19T04:04:50.615Z,7.80
2022-11-19T04:07:20.834Z,6.10
2022-11-19T04:09:49.279Z,5.43
2022-11-19T04:12:19.578Z,6.55
2022-11-19T04:14:48.112Z,7.20
2022-11-19T04:17:16.532Z,6.45
2022-11-19T04:19:45.083Z,4.05
2022-11-19T04:22:14.529Z,8.52
2022-11-19T04:24:42.659Z,3.85
2022-11-19T04:27:10.765Z,4.38
2022-11-19T04:29:38.754Z,4.25
2022-11-19T04:32:07.174Z,5.85
2022-11-19T04:34:35.266Z,6.13
2022-11-19T04:37:03.433Z,4.57
2022-11-19T04:39:32.875Z,5.68
2022-11-19T04:42:01.050Z,5.43
2022-11-19T04:44:29.338Z,4.88
2022-11-19T04:46:57.390Z,5.60
2022-11-19T04:49:25.468Z,5.50
2022-11-19T04:51:53.523Z,5.72
2022-11-19T04:54:21.520Z,4.90
2022-11-19T04:56:50.926Z,5.25
2022-11-19T04:59:19.090Z,5.50
2022-11-19T05:01:47.432Z,7.35
2022-11-19T05:04:15.522Z,5.40
2022-11-19T05:06:43.517Z,6.45
2022-11-19T05:09:11.629Z,6.85
2022-11-19T05:11:39.600Z,4.90
2022-11-19T05:14:09.229Z,4.85
2022-11-19T05:16:37.199Z,4.28
2022-11-19T05:19:05.229Z,9.25
2022-11-19T05:21:35.330Z,4.97
2022-11-19T05:24:03.465Z,5.25
2022-11-19T05:26:31.484Z,6.80
2022-11-19T05:28:59.507Z,6.18
2022-11-19T05:31:28.833Z,4.60
2022-11-19T05:33:56.888Z,7.30
2022-11-19T05:36:24.902Z,7.65
2022-11-19T05:38:52.901Z,6.53
2022-11-19T05:41:20.997Z,6.88
2022-11-19T05:43:49.078Z,6.15
2022-11-19T05:46:17.066Z,7.53
2022-11-19T05:48:46.500Z,9.15
2022-11-19T05:51:15.329Z,5.55
2022-11-19T05:53:43.816Z,5.05
2022-11-19T05:56:11.922Z,6.78
2022-11-19T05:58:42.442Z,9.88
2022-11-19T06:01:10.472Z,7.75
2022-11-19T06:03:39.361Z,6.20
2022-11-19T06:06:09.369Z,11.25
2022-11-19T06:08:37.449Z,8.48
2022-11-19T06:11:05.481Z,8.38
2022-11-19T06:13:35.990Z,8.30
2022-11-19T06:16:04.033Z,8.00
2022-11-19T06:18:32.064Z,7.47
2022-11-19T06:21:00.109Z,10.40
2022-11-19T06:23:29.438Z,7.32
2022-11-19T06:25:57.607Z,6.45
2022-11-19T06:28:28.144Z,9.93
2022-11-19T06:30:58.463Z,8.85
2022-11-19T06:33:26.464Z,4.55
2022-11-19T06:35:54.570Z,5.72
2022-11-19T06:38:22.658Z,5.63
2022-11-19T06:40:54.231Z,7.32
2022-11-19T06:43:22.312Z,8.57
2022-11-19T06:45:50.352Z,8.57
2022-11-19T06:48:18.435Z,6.20
2022-11-19T06:50:46.726Z,8.07
2022-11-19T06:53:14.865Z,7.38
2022-11-19T06:55:43.051Z,8.77
2022-11-19T06:58:13.519Z,5.15
2022-11-19T07:00:42.190Z,8.85
2022-11-19T07:03:10.184Z,6.65
2022-11-19T07:05:38.437Z,8.45
2022-11-19T07:08:06.641Z,5.60
2022-11-19T07:10:34.766Z,10.63
2022-11-19T07:13:03.052Z,6.68
2022-11-19T07:15:32.419Z,6.70
2022-11-19T07:18:01.602Z,9.20
2022-11-19T07:20:29.611Z,10.15
2022-11-19T07:22:59.390Z,7.47
2022-11-19T07:25:28.233Z,9.00
2022-11-19T07:27:56.237Z,8.27
2022-11-19T07:30:24.259Z,9.10
2022-11-19T07:32:54.894Z,8.65
2022-11-19T07:35:23.020Z,9.35
2022-11-19T07:37:51.025Z,6.10
2022-11-19T07:40:19.324Z,9.60
2022-11-19T07:42:49.252Z,8.60
2022-11-19T07:45:17.951Z,8.88
2022-11-19T07:47:46.145Z,12.23
2022-11-19T07:50:15.755Z,12.75
2022-11-19T07:52:43.916Z,8.93
2022-11-19T07:55:12.106Z,7.50
2022-11-19T07:57:40.226Z,7.63
2022-11-19T08:00:09.380Z,6.18
2022-11-19T08:02:46.540Z,7.30
2022-11-19T08:05:16.042Z,5.90
2022-11-19T08:07:44.119Z,6.45
2022-11-19T08:10:12.817Z,4.97
2022-11-19T08:12:40.802Z,7.05
2022-11-19T08:15:10.135Z,7.38
2022-11-19T08:17:55.437Z,7.53
2022-11-19T08:20:24.970Z,8.57
2022-11-19T08:22:53.285Z,9.75
2022-11-19T08:25:21.372Z,9.13
2022-11-19T08:27:49.367Z,6.05
2022-11-19T08:30:20.029Z,5.75
2022-11-19T08:32:48.246Z,5.82
2022-11-19T08:35:16.477Z,9.35
2022-11-19T08:37:47.401Z,7.15
2022-11-19T08:40:15.758Z,5.72
2022-11-19T08:43:01.034Z,5.07
2022-11-19T08:45:31.743Z,6.25
2022-11-19T08:48:01.648Z,8.27
2022-11-19T08:50:31.721Z,8.70
2022-11-19T08:53:02.973Z,5.30
2022-11-19T08:55:32.744Z,4.80
2022-11-19T08:58:01.849Z,6.35
2022-11-19T09:00:30.727Z,6.28
2022-11-19T09:02:59.008Z,7.18
2022-11-19T09:05:27.490Z,11.85
2022-11-19T09:07:56.006Z,8.35
2022-11-19T09:10:25.364Z,8.45
2022-11-19T09:12:53.416Z,6.85
2022-11-19T09:15:21.947Z,7.30
2022-11-19T09:17:49.935Z,5.45
2022-11-19T09:20:18.363Z,9.00
2022-11-19T09:22:46.419Z,7.88
2022-11-19T09:25:14.450Z,7.30
2022-11-19T09:27:43.833Z,4.93
2022-11-19T09:30:12.281Z,5.15
2022-11-19T09:32:40.331Z,8.80
2022-11-19T09:35:09.184Z,6.43
2022-11-19T09:37:37.235Z,13.10
2022-11-19T09:40:06.351Z,7.15
2022-11-19T09:42:42.337Z,6.80
2022-11-19T09:45:19.780Z,5.43
2022-11-19T09:48:03.810Z,4.85
2022-11-19T09:50:35.741Z,4.80
2022-11-19T09:53:09.834Z,3.78
2022-11-19T09:55:42.938Z,4.93
2022-11-19T09:58:15.978Z,4.28
2022-11-19T10:00:47.727Z,6.32
2022-11-19T10:03:18.594Z,6.85
2022-11-19T10:06:00.378Z,6.07
2022-11-19T10:08:41.574Z,5.50
2022-11-19T10:11:29.165Z,5.18
2022-11-19T10:14:05.686Z,3.70
2022-11-19T10:16:51.063Z,6.88
2022-11-19T10:19:33.026Z,4.70
2022-11-19T10:22:08.730Z,4.43
2022-11-19T10:24:42.890Z,5.53
2022-11-19T10:27:20.728Z,4.97
2022-11-19T10:29:52.564Z,5.97
2022-11-19T10:32:30.532Z,7.25
2022-11-19T10:35:04.458Z,7.05
2022-11-19T10:37:37.337Z,6.35
2022-11-19T10:40:13.056Z,7.05
2022-11-19T10:42:45.269Z,4.75
2022-11-19T10:45:17.869Z,3.83
2022-11-19T10:47:54.892Z,6.72
2022-11-19T10:50:24.937Z,5.75
2022-11-19T10:52:56.730Z,4.03
2022-11-19T10:55:29.088Z,4.90
2022-11-19T10:58:12.426Z,4.82
2022-11-19T11:00:42.822Z,4.80
2022-11-19T11:03:21.420Z,4.80
2022-11-19T11:05:57.907Z,4.13
2022-11-19T11:08:26.334Z,3.92
2022-11-19T11:10:54.540Z,4.18
2022-11-19T11:13:49.165Z,6.55
2022-11-19T11:16:19.771Z,4.25
2022-11-19T11:18:50.086Z,4.20
2022-11-19T11:21:36.385Z,6.22
2022-11-19T11:24:08.154Z,5.25
2022-11-19T11:26:37.984Z,4.30
2022-11-19T11:29:09.065Z,7.78
2022-11-19T11:31:40.107Z,3.67
2022-11-19T11:34:28.840Z,4.03
2022-11-19T11:36:57.640Z,5.75
2022-11-19T11:39:29.122Z,3.00
2022-11-19T11:42:07.249Z,3.38
2022-11-19T11:44:38.445Z,4.13
2022-11-19T11:47:14.027Z,3.45
2022-11-19T11:49:45.096Z,4.30
2022-11-19T11:52:19.273Z,5.95
2022-11-19T11:54:58.605Z,5.20
2022-11-19T11:57:28.530Z,4.95
2022-11-19T11:59:58.242Z,3.95
2022-11-19T12:02:30.626Z,3.30
2022-11-19T12:05:02.397Z,7.88
2022-11-19T12:07:49.262Z,5.68
2022-11-19T12:10:31.097Z,3.70
2022-11-19T12:13:23.700Z,4.70
2022-11-19T12:16:01.138Z,4.68
2022-11-19T12:18:36.155Z,4.65
2022-11-19T12:21:11.922Z,4.40
2022-11-19T12:23:55.696Z,5.10
2022-11-19T12:26:31.970Z,5.47
2022-11-19T12:29:13.471Z,6.55
2022-11-19T12:31:57.023Z,5.00
2022-11-19T12:34:49.502Z,5.07
2022-11-19T12:37:37.594Z,6.03
2022-11-19T12:40:20.487Z,3.80
2022-11-19T12:42:58.944Z,7.47
2022-11-19T12:45:37.469Z,7.03
2022-11-19T12:48:28.457Z,5.57
2022-11-19T12:51:02.922Z,7.13
2022-11-19T12:53:47.123Z,6.70
2022-11-19T12:56:28.979Z,6.65
2022-11-19T12:59:08.332Z,4.43
2022-11-19T13:01:41.636Z,3.92
2022-11-19T13:04:15.686Z,5.82
2022-11-19T13:06:49.704Z,5.63
2022-11-19T13:09:25.853Z,3.65
2022-11-19T13:11:57.871Z,5.38
2022-11-19T13:14:31.194Z,6.63
2022-11-19T13:17:01.163Z,5.30
2022-11-19T13:19:32.372Z,5.07
2022-11-19T13:22:06.406Z,5.53
2022-11-19T13:24:41.257Z,3.47
2022-11-19T13:27:20.229Z,5.43
2022-11-19T13:29:54.089Z,4.63
2022-11-19T13:32:26.759Z,5.72
2022-11-19T13:35:17.771Z,6.45
2022-11-19T13:37:58.036Z,4.22
2022-11-19T13:40:31.773Z,5.30
2022-11-19T13:43:31.465Z,3.92
2022-11-19T13:46:08.474Z,3.72
2022-11-19T13:48:43.128Z,5.03
2022-11-19T13:51:24.278Z,4.45
2022-11-19T13:54:02.354Z,7.07
2022-11-19T13:56:45.295Z,4.47
2022-11-19T13:59:30.117Z,3.80
2022-11-19T14:02:13.894Z,4.88
2022-11-19T14:05:05.177Z,4.28
2022-11-19T14:08:03.575Z,4.43
2022-11-19T14:10:38.137Z,4.78
2022-11-19T14:13:31.215Z,6.03
2022-11-19T14:16:26.386Z,4.82
2022-11-19T14:19:17.622Z,4.45
2022-11-19T14:22:11.437Z,4.10
2022-11-19T14:25:18.046Z,4.20
2022-11-19T14:27:46.168Z,5.28
2022-11-19T14:30:21.810Z,4.70
2022-11-19T14:32:52.611Z,5.43
2022-11-19T14:35:40.047Z,5.82
2022-11-19T14:38:41.711Z,4.13
2022-11-19T14:41:27.870Z,4.85
2022-11-19T14:44:13.156Z,5.03
2022-11-19T14:46:48.126Z,4.75
2022-11-19T14:49:34.172Z,4.13
2022-11-19T14:52:03.812Z,4.53
2022-11-19T14:54:44.859Z,4.88
2022-11-19T14:57:25.673Z,2.88
2022-11-19T14:59:57.751Z,3.55
2022-11-19T15:02:35.720Z,4.78
2022-11-19T15:05:08.534Z,4.53
2022-11-19T15:07:46.571Z,5.95
2022-11-19T15:10:33.019Z,5.30
2022-11-19T15:13:22.897Z,4.40
2022-11-19T15:15:55.648Z,4.35
2022-11-19T15:18:57.691Z,7.75
2022-11-19T15:21:41.374Z,4.60
2022-11-19T15:24:20.369Z,5.63
2022-11-19T15:26:56.348Z,3.20
2022-11-19T15:29:42.068Z,3.33
2022-11-19T15:32:26.880Z,4.57
2022-11-19T15:35:18.422Z,3.90
2022-11-19T15:37:51.335Z,3.65
2022-11-19T15:40:23.635Z,6.32
2022-11-19T15:42:58.083Z,5.50
2022-11-19T15:45:28.028Z,4.40
2022-11-19T15:48:05.210Z,5.55
2022-11-19T15:50:36.203Z,5.90
2022-11-19T15:53:15.942Z,4.97
2022-11-19T15:55:51.603Z,8.18
2022-11-19T15:58:25.785Z,3.78
2022-11-19T16:00:55.046Z,5.47
2022-11-19T16:03:25.908Z,5.35
2022-11-19T16:06:04.712Z,6.60
2022-11-19T16:08:33.582Z,3.65
2022-11-19T16:11:30.818Z,4.15
2022-11-19T16:14:16.213Z,5.57
2022-11-19T16:17:01.645Z,4.60
2022-11-19T16:19:29.680Z,7.28
2022-11-19T16:22:02.065Z,3.78
2022-11-19T16:24:48.594Z,4.70
2022-11-19T16:27:21.534Z,4.78
2022-11-19T16:29:49.686Z,6.43
2022-11-19T16:32:20.460Z,5.28
2022-11-19T16:34:48.999Z,4.45
2022-11-19T16:37:21.910Z,5.65
2022-11-19T16:39:53.234Z,5.63
2022-11-19T16:42:26.680Z,6.72
2022-11-19T16:45:09.886Z,5.03
2022-11-19T16:47:40.254Z,5.90
2022-11-19T16:50:25.739Z,6.50
2022-11-19T16:52:55.348Z,6.18
2022-11-19T16:55:54.703Z,6.20
2022-11-19T16:58:27.401Z,7.45
2022-11-19T17:00:59.496Z,5.82
2022-11-19T17:03:39.499Z,3.78
2022-11-19T17:06:09.778Z,5.70
2022-11-19T17:08:40.979Z,5.35
2022-11-19T17:11:39.190Z,5.32
2022-11-19T17:14:28.129Z,5.25
2022-11-19T17:16:57.596Z,4.45
2022-11-19T17:19:31.842Z,6.35
2022-11-19T17:22:02.361Z,9.75
2022-11-19T17:24:35.258Z,5.90
2022-11-19T17:27:03.324Z,6.05
2022-11-19T17:29:31.454Z,4.22
2022-11-19T17:31:59.941Z,5.22
2022-11-19T17:34:32.281Z,6.25
2022-11-19T17:37:00.731Z,9.25
2022-11-19T17:39:28.805Z,6.22
2022-11-19T17:42:16.097Z,4.20
2022-11-19T17:44:46.454Z,7.93
2022-11-19T17:47:22.433Z,6.95
2022-11-19T17:49:51.569Z,6.75
2022-11-19T17:52:25.334Z,10.15
2022-11-19T17:54:56.116Z,7.75
2022-11-19T17:57:28.383Z,7.28
2022-11-19T17:59:59.616Z,5.85
2022-11-19T18:02:27.681Z,5.25
2022-11-19T18:04:59.927Z,6.30
2022-11-19T18:07:28.156Z,6.80
2022-11-19T18:09:56.202Z,5.28
2022-11-19T18:12:25.639Z,7.72
2022-11-19T18:14:57.938Z,5.20
2022-11-19T18:17:28.842Z,7.45
2022-11-19T18:19:56.882Z,7.45
2022-11-19T18:22:28.157Z,6.30
2022-11-19T18:24:57.323Z,8.50
2022-11-19T18:27:26.915Z,6.57
2022-11-19T18:29:55.443Z,5.63
2022-11-19T18:32:25.905Z,6.82
2022-11-19T18:34:57.933Z,7.03
2022-11-19T18:37:29.306Z,8.30
2022-11-19T18:39:57.426Z,7.50
2022-11-19T18:42:27.348Z,8.65
2022-11-19T18:44:54.361Z,7.60
2022-11-19T18:47:24.526Z,5.80
2022-11-19T18:49:52.687Z,5.68
2022-11-19T18:52:20.828Z,8.32
2022-11-19T18:54:49.241Z,7.32
2022-11-19T18:57:17.351Z,6.82
2022-11-19T18:59:46.676Z,7.53
2022-11-19T19:02:14.872Z,5.85
2022-11-19T19:04:43.562Z,6.45
2022-11-19T19:07:14.151Z,10.35
2022-11-19T19:09:42.176Z,9.77
2022-11-19T19:12:18.791Z,8.68
2022-11-19T19:14:51.459Z,6.63
2022-11-19T19:17:22.623Z,9.45
2022-11-19T19:19:50.795Z,7.22
2022-11-19T19:22:19.308Z,7.90
2022-11-19T19:24:47.360Z,7.63
2022-11-19T19:27:16.163Z,9.43
2022-11-19T19:29:44.444Z,7.82
2022-11-19T19:32:13.783Z,5.97
2022-11-19T19:34:41.856Z,5.50
2022-11-19T19:37:10.146Z,5.90
2022-11-19T19:39:38.166Z,7.63
2022-11-19T19:42:07.908Z,8.95
2022-11-19T19:44:36.938Z,6.65
2022-11-19T19:47:06.035Z,5.88
2022-11-19T19:49:39.571Z,7.00
2022-11-19T19:52:07.655Z,7.93
2022-11-19T19:54:35.641Z,8.02
2022-11-19T19:57:03.814Z,9.57
2022-11-19T19:59:31.847Z,6.07
2022-11-19T20:02:04.587Z,7.28
2022-11-19T20:04:35.078Z,6.43
2022-11-19T20:07:03.148Z,7.25
2022-11-19T20:09:31.390Z,7.55
2022-11-19T20:12:02.392Z,8.23
2022-11-19T20:14:30.528Z,3.97
2022-11-19T20:16:58.567Z,6.22
2022-11-19T20:19:26.769Z,5.97
2022-11-19T20:21:56.510Z,7.28
2022-11-19T20:24:24.805Z,6.30
2022-11-19T20:26:52.886Z,14.18
2022-11-19T20:29:22.125Z,8.18
2022-11-19T20:31:51.751Z,9.23
2022-11-19T20:34:19.918Z,7.50
2022-11-19T20:36:48.041Z,7.05
2022-11-19T20:39:19.807Z,6.28
2022-11-19T20:42:05.758Z,5.50
2022-11-19T20:44:33.879Z,6.03
2022-11-19T20:47:03.418Z,6.65
2022-11-19T20:49:35.943Z,5.75
2022-11-19T20:52:05.255Z,8.48
2022-11-19T20:54:34.889Z,4.65
2022-11-19T20:57:03.087Z,7.65
2022-11-19T20:59:31.323Z,6.10
2022-11-19T21:01:59.466Z,5.80
2022-11-19T21:04:28.943Z,9.82
2022-11-19T21:06:57.028Z,5.38
2022-11-19T21:09:27.739Z,6.05
2022-11-19T21:11:57.179Z,8.65
2022-11-19T21:14:25.267Z,11.75
2022-11-19T21:16:53.267Z,7.88
2022-11-19T21:19:24.051Z,8.23
2022-11-19T21:21:52.206Z,8.60
2022-11-19T21:24:20.240Z,9.10
2022-11-19T21:26:48.404Z,9.77
2022-11-19T21:29:17.759Z,9.70
2022-11-19T21:31:48.672Z,11.00
2022-11-19T21:34:18.655Z,8.95
2022-11-19T21:36:47.800Z,9.35
2022-11-19T21:39:17.216Z,11.65
2022-11-19T21:41:45.509Z,10.18
2022-11-19T21:44:18.326Z,8.20
2022-11-19T21:46:50.720Z,6.22
2022-11-19T21:49:19.484Z,8.45
2022-11-19T21:51:47.706Z,10.13
2022-11-19T21:54:15.833Z,9.85
2022-11-19T21:56:43.799Z,8.38
2022-11-19T21:59:11.800Z,11.57
2022-11-19T22:01:39.805Z,11.00
2022-11-19T22:04:09.328Z,11.57
2022-11-19T22:06:37.399Z,9.95
2022-11-19T22:09:05.601Z,11.52
2022-11-19T22:11:33.603Z,9.52
2022-11-19T22:14:03.644Z,7.57
2022-11-19T22:16:34.191Z,10.60
2022-11-19T22:19:02.565Z,10.32
2022-11-19T22:21:32.045Z,9.10
2022-11-19T22:24:02.534Z,11.48
2022-11-19T22:26:31.131Z,7.85
2022-11-19T22:28:59.468Z,9.07
2022-11-19T22:31:27.832Z,15.40
2022-11-19T22:33:56.053Z,12.38
2022-11-19T22:36:25.011Z,13.77
2022-11-19T22:38:54.329Z,11.68
2022-11-19T22:41:22.734Z,12.15
2022-11-19T22:43:51.675Z,9.88
2022-11-19T22:46:20.790Z,9.55
2022-11-19T22:48:49.272Z,10.55
2022-11-19T22:51:19.024Z,9.50
2022-11-19T22:53:47.388Z,11.30
2022-11-19T22:56:18.876Z,11.40
2022-11-19T22:58:47.647Z,7.97
2022-11-19T23:01:18.518Z,9.77
2022-11-19T23:03:46.933Z,10.65
2022-11-19T23:06:15.616Z,13.75
2022-11-19T23:08:43.638Z,12.38
2022-11-19T23:11:12.469Z,9.85
2022-11-19T23:13:42.809Z,10.98
2022-11-19T23:16:14.535Z,11.98
2022-11-19T23:18:46.669Z,8.18
2022-11-19T23:21:16.482Z,15.48
2022-11-19T23:23:44.653Z,15.20
2022-11-19T23:26:14.691Z,10.65
2022-11-19T23:28:45.581Z,9.25
2022-11-19T23:31:17.063Z,12.38
2022-11-19T23:33:45.794Z,8.95
2022-11-19T23:36:16.491Z,12.77
2022-11-19T23:38:44.976Z,10.10
2022-11-19T23:41:15.314Z,13.52
2022-11-19T23:43:45.397Z,10.65
2022-11-19T23:46:15.296Z,11.90
2022-11-19T23:48:45.340Z,11.38
2022-11-19T23:51:15.495Z,10.35
2022-11-19T23:53:44.441Z,12.73
2022-11-19T23:56:17.079Z,10.40
2022-11-19T23:58:49.188Z,11.23
